Time;durP1;ratioP1;P1;durP2;ratioP2;P2;SDS_P1;SDS_P2;PMS_P1;PMS_P2;Temp;Humidity;BMP_temperature;BMP_pressure;BME280_temperature;BME280_humidity;BME280_pressure;Samples;Min_cycle;Max_cycle;Signal;HPM_P1;HPM_P2
2021/09/01 00:00:30;;;;;;;0.00;0.00;;;;;;;;;;10522946;28;20060;-75
2021/09/01 00:05:34;;;;;;;0.00;0.00;;;;;;;;;;10513102;28;20072;-77
2021/09/01 00:10:38;;;;;;;0.00;0.00;;;;;;;;;;10508890;28;20497;-76
2021/09/01 00:15:41;;;;;;;0.00;0.00;;;;;;;;;;10514603;28;20094;-76
2021/09/01 00:20:44;;;;;;;0.00;0.00;;;;;;;;;;10507733;28;20040;-76
2021/09/01 00:25:48;;;;;;;0.00;0.00;;;;;;;;;;10496333;28;20062;-76
2021/09/01 00:30:52;;;;;;;0.00;0.00;;;;;;;;;;10496716;28;20048;-76
2021/09/01 00:35:57;;;;;;;0.00;0.00;;;;;;;;;;10523565;28;20040;-76
2021/09/01 00:41:03;;;;;;;0.00;0.00;;;;;;;;;;10517216;28;20473;-75
2021/09/01 00:46:07;;;;;;;0.00;0.00;;;;;;;;;;10511770;28;20044;-75
2021/09/01 00:51:11;;;;;;;0.10;0.10;;;;;;;;;;10508317;28;20040;-76
2021/09/01 00:56:18;;;;;;;0.00;0.00;;;;;;;;;;10514886;28;20048;-77
2021/09/01 01:01:21;;;;;;;0.00;0.00;;;;;;;;;;10508357;28;20040;-77
2021/09/01 01:06:25;;;;;;;0.00;0.00;;;;;;;;;;10511697;28;20051;-76
2021/09/01 01:11:29;;;;;;;0.00;0.00;;;;;;;;;;10512018;28;20052;-75
2021/09/01 01:16:32;;;;;;;0.00;0.00;;;;;;;;;;10506568;28;20050;-76
2021/09/01 01:21:34;;;;;;;0.10;0.10;;;;;;;;;;10520902;28;21332;-76
2021/09/01 01:26:39;;;;;;;0.00;0.00;;;;;;;;;;10508515;28;20068;-77
2021/09/01 01:31:42;;;;;;;0.00;0.00;;;;;;;;;;10514329;28;20504;-77
2021/09/01 01:36:46;;;;;;;0.00;0.00;;;;;;;;;;10500675;28;20850;-76
2021/09/01 01:41:50;;;;;;;0.10;0.10;;;;;;;;;;10492207;28;20048;-74
2021/09/01 01:46:53;;;;;;;0.00;0.00;;;;;;;;;;10510147;28;20106;-74
2021/09/01 01:51:56;;;;;;;0.05;0.05;;;;;;;;;;10511052;28;20160;-75
2021/09/01 01:57:00;;;;;;;0.00;0.00;;;;;;;;;;10511180;28;20044;-74
2021/09/01 02:02:03;;;;;;;0.00;0.00;;;;;;;;;;10509610;28;20123;-75
2021/09/01 02:07:05;;;;;;;0.00;0.00;;;;;;;;;;10509309;28;20517;-74
2021/09/01 02:12:10;;;;;;;0.00;0.00;;;;;;;;;;10510574;28;20047;-75
2021/09/01 02:17:14;;;;;;;0.10;0.10;;;;;;;;;;10513971;28;20044;-74
2021/09/01 02:22:16;;;;;;;0.00;0.00;;;;;;;;;;10506394;28;20150;-74
2021/09/01 02:27:20;;;;;;;0.03;0.03;;;;;;;;;;10514675;28;20047;-74
2021/09/01 02:32:26;;;;;;;0.00;0.00;;;;;;;;;;10511349;28;20079;-74
2021/09/01 02:37:29;;;;;;;0.00;0.00;;;;;;;;;;10515362;28;20056;-74
2021/09/01 02:42:33;;;;;;;0.00;0.00;;;;;;;;;;10510233;28;20557;-74
2021/09/01 02:47:36;;;;;;;0.05;0.05;;;;;;;;;;10509237;28;20136;-74
2021/09/01 02:52:39;;;;;;;0.00;0.00;;;;;;;;;;10503543;28;20040;-75
2021/09/01 02:57:45;;;;;;;0.00;0.00;;;;;;;;;;10516951;28;20048;-74
2021/09/01 03:02:48;;;;;;;0.10;0.10;;;;;;;;;;10501507;28;20076;-74
2021/09/01 03:07:51;;;;;;;0.00;0.00;;;;;;;;;;10504497;28;20166;-75
2021/09/01 03:12:55;;;;;;;0.00;0.00;;;;;;;;;;10508963;28;20048;-75
2021/09/01 03:17:58;;;;;;;0.00;0.00;;;;;;;;;;10517252;28;20052;-75
2021/09/01 03:23:02;;;;;;;0.00;0.00;;;;;;;;;;10512781;28;20051;-75
2021/09/01 03:28:07;;;;;;;0.03;0.03;;;;;;;;;;10504978;28;20044;-75
2021/09/01 03:33:10;;;;;;;0.00;0.00;;;;;;;;;;10500511;28;20766;-75
2021/09/01 03:38:15;;;;;;;0.00;0.00;;;;;;;;;;10512825;28;20036;-74
2021/09/01 03:43:21;;;;;;;0.00;0.00;;;;;;;;;;10511038;28;20032;-76
2021/09/01 03:48:24;;;;;;;0.00;0.00;;;;;;;;;;10514658;28;20045;-75
2021/09/01 03:53:27;;;;;;;0.00;0.00;;;;;;;;;;10517661;28;20040;-74
2021/09/01 03:58:31;;;;;;;0.10;0.10;;;;;;;;;;10501882;28;20052;-76
2021/09/01 04:03:33;;;;;;;0.05;0.05;;;;;;;;;;10520734;28;20043;-75
2021/09/01 04:08:38;;;;;;;0.00;0.00;;;;;;;;;;10514417;28;21031;-74
2021/09/01 04:13:42;;;;;;;0.00;0.00;;;;;;;;;;10487731;28;20469;-74
2021/09/01 04:18:45;;;;;;;0.10;0.10;;;;;;;;;;10520061;28;20051;-76
2021/09/01 04:23:49;;;;;;;0.00;0.00;;;;;;;;;;10511753;28;20045;-75
2021/09/01 04:28:53;;;;;;;0.00;0.00;;;;;;;;;;10514333;28;20052;-75
2021/09/01 04:33:55;;;;;;;0.00;0.00;;;;;;;;;;10518495;28;20036;-75
2021/09/01 04:38:59;;;;;;;0.10;0.10;;;;;;;;;;10518027;28;20040;-75
2021/09/01 04:44:03;;;;;;;0.00;0.00;;;;;;;;;;10515423;28;20044;-75
2021/09/01 04:49:07;;;;;;;0.10;0.10;;;;;;;;;;10513596;28;20048;-75
2021/09/01 04:54:11;;;;;;;0.10;0.10;;;;;;;;;;10508273;28;20040;-75
2021/09/01 04:59:15;;;;;;;0.00;0.00;;;;;;;;;;10513095;28;20124;-75
2021/09/01 05:04:18;;;;;;;0.10;0.10;;;;;;;;;;10513393;28;20413;-76
2021/09/01 05:09:21;;;;;;;0.00;0.00;;;;;;;;;;10523888;28;20054;-75
2021/09/01 05:14:25;;;;;;;0.08;0.08;;;;;;;;;;10507953;28;20060;-72
2021/09/01 05:19:27;;;;;;;0.00;0.00;;;;;;;;;;10507260;28;20370;-75
2021/09/01 05:24:37;;;;;;;0.00;0.00;;;;;;;;;;10515555;28;20041;-73
2021/09/01 05:29:44;;;;;;;0.00;0.00;;;;;;;;;;10511585;28;20045;-73
2021/09/01 05:34:47;;;;;;;0.00;0.00;;;;;;;;;;10494067;28;20052;-72
2021/09/01 05:39:53;;;;;;;0.05;0.05;;;;;;;;;;10488274;28;20047;-72
2021/09/01 05:44:57;;;;;;;0.10;0.10;;;;;;;;;;10511523;28;20052;-73
2021/09/01 05:50:01;;;;;;;0.00;0.00;;;;;;;;;;10486398;28;20041;-73
2021/09/01 05:55:09;;;;;;;0.00;0.00;;;;;;;;;;10490694;28;20071;-74
2021/09/01 06:00:14;;;;;;;0.00;0.00;;;;;;;;;;10492649;28;20502;-73
2021/09/01 06:05:18;;;;;;;0.00;0.00;;;;;;;;;;10485986;28;20059;-73
2021/09/01 06:10:22;;;;;;;0.00;0.00;;;;;;;;;;10483350;28;20051;-74
2021/09/01 06:15:27;;;;;;;0.00;0.00;;;;;;;;;;10482090;28;20162;-74
2021/09/01 06:20:30;;;;;;;0.00;0.00;;;;;;;;;;10519892;28;20829;-73
2021/09/01 06:25:33;;;;;;;0.10;0.10;;;;;;;;;;10493139;28;20557;-73
2021/09/01 06:30:37;;;;;;;0.00;0.00;;;;;;;;;;10514731;28;20067;-73
2021/09/01 06:35:41;;;;;;;0.00;0.00;;;;;;;;;;10511644;28;20052;-73
2021/09/01 06:40:44;;;;;;;0.00;0.00;;;;;;;;;;10509702;28;20401;-74
2021/09/01 06:45:50;;;;;;;0.00;0.00;;;;;;;;;;10513764;28;20063;-72
2021/09/01 06:50:53;;;;;;;0.05;0.05;;;;;;;;;;10505246;28;20067;-72
2021/09/01 06:55:56;;;;;;;0.00;0.00;;;;;;;;;;10507095;28;20036;-71
2021/09/01 07:01:00;;;;;;;0.00;0.00;;;;;;;;;;10517400;28;20461;-73
2021/09/01 07:06:03;;;;;;;0.00;0.00;;;;;;;;;;10512653;28;20567;-72
2021/09/01 07:11:05;;;;;;;0.00;0.00;;;;;;;;;;10505348;28;20052;-74
2021/09/01 07:16:11;;;;;;;0.03;0.03;;;;;;;;;;10514413;28;20051;-74
2021/09/01 07:21:14;;;;;;;0.00;0.00;;;;;;;;;;10520906;28;20045;-74
2021/09/01 07:26:17;;;;;;;0.00;0.00;;;;;;;;;;10516602;28;20063;-73
2021/09/01 07:31:24;;;;;;;0.00;0.00;;;;;;;;;;10504869;28;20036;-73
2021/09/01 07:36:27;;;;;;;0.00;0.00;;;;;;;;;;10486214;28;20063;-74
2021/09/01 07:41:29;;;;;;;0.10;0.10;;;;;;;;;;10522701;28;20036;-74
2021/09/01 07:46:33;;;;;;;0.00;0.00;;;;;;;;;;10519290;28;20048;-73
2021/09/01 07:51:36;;;;;;;0.00;0.00;;;;;;;;;;10521193;28;20132;-73
2021/09/01 07:56:39;;;;;;;0.00;0.00;;;;;;;;;;10515310;28;20055;-73
2021/09/01 08:01:43;;;;;;;0.00;0.00;;;;;;;;;;10515510;28;20040;-74
2021/09/01 08:06:46;;;;;;;0.00;0.00;;;;;;;;;;10519675;28;20074;-74
2021/09/01 08:11:49;;;;;;;0.00;0.00;;;;;;;;;;10520146;28;20592;-74
2021/09/01 08:16:53;;;;;;;0.00;0.00;;;;;;;;;;10514541;28;20040;-74
2021/09/01 08:21:55;;;;;;;0.00;0.00;;;;;;;;;;10519614;28;20040;-73
2021/09/01 08:26:58;;;;;;;0.00;0.00;;;;;;;;;;10513917;28;20044;-73
2021/09/01 08:32:03;;;;;;;0.05;0.05;;;;;;;;;;10515174;28;20072;-74
2021/09/01 08:37:06;;;;;;;0.00;0.00;;;;;;;;;;10519325;28;20106;-73
2021/09/01 08:42:09;;;;;;;0.00;0.00;;;;;;;;;;10511727;28;20052;-74
2021/09/01 08:47:15;;;;;;;0.00;0.00;;;;;;;;;;10510390;28;20047;-74
2021/09/01 08:52:18;;;;;;;0.00;0.00;;;;;;;;;;10519898;28;20040;-73
2021/09/01 08:57:21;;;;;;;0.00;0.00;;;;;;;;;;10515160;28;20108;-73
2021/09/01 09:02:29;;;;;;;0.00;0.00;;;;;;;;;;10514487;28;20036;-74
2021/09/01 09:07:42;;;;;;;0.00;0.00;;;;;;;;;;10499163;28;20569;-74
2021/09/01 09:12:55;;;;;;;0.00;0.00;;;;;;;;;;10507851;28;20071;-74
2021/09/01 09:18:00;;;;;;;0.00;0.00;;;;;;;;;;10498095;28;20128;-73
2021/09/01 09:23:05;;;;;;;0.00;0.00;;;;;;;;;;10498313;28;20040;-73
2021/09/01 09:28:09;;;;;;;0.00;0.00;;;;;;;;;;10517473;28;20037;-74
2021/09/01 09:33:15;;;;;;;0.00;0.00;;;;;;;;;;10520845;28;21104;-73
2021/09/01 09:38:26;;;;;;;0.10;0.10;;;;;;;;;;10512146;28;20071;-73
2021/09/01 09:43:28;;;;;;;0.00;0.00;;;;;;;;;;10509074;28;20483;-73
2021/09/01 09:48:34;;;;;;;0.00;0.00;;;;;;;;;;10515207;28;20040;-72
2021/09/01 09:53:38;;;;;;;0.00;0.00;;;;;;;;;;10518235;28;20040;-72
2021/09/01 09:58:47;;;;;;;0.00;0.00;;;;;;;;;;10509989;28;20041;-72
2021/09/01 10:03:52;;;;;;;0.00;0.00;;;;;;;;;;10501959;28;20512;-74
2021/09/01 10:08:57;;;;;;;0.00;0.00;;;;;;;;;;10514273;28;20044;-73
2021/09/01 10:13:59;;;;;;;0.00;0.00;;;;;;;;;;10514907;28;20041;-73
2021/09/01 10:19:08;;;;;;;0.00;0.00;;;;;;;;;;10511694;28;20058;-72
2021/09/01 10:24:18;;;;;;;0.17;0.00;;;;;;;;;;10507262;28;20071;-73
2021/09/01 10:29:36;;;;;;;0.00;0.00;;;;;;;;;;10514101;28;20103;-72
2021/09/01 10:34:40;;;;;;;0.00;0.00;;;;;;;;;;10516944;28;20471;-72
2021/09/01 10:39:43;;;;;;;0.00;0.00;;;;;;;;;;10510477;28;20045;-72
2021/09/01 10:44:47;;;;;;;0.00;0.00;;;;;;;;;;10511693;28;20036;-72
2021/09/01 10:50:02;;;;;;;0.03;0.00;;;;;;;;;;10510885;28;20117;-73
2021/09/01 10:55:05;;;;;;;0.00;0.00;;;;;;;;;;10502487;28;20055;-72
2021/09/01 11:00:15;;;;;;;0.00;0.00;;;;;;;;;;10524271;28;20777;-72
2021/09/01 11:05:23;;;;;;;0.00;0.00;;;;;;;;;;10526987;28;20082;-72
2021/09/01 11:10:28;;;;;;;0.00;0.00;;;;;;;;;;10509035;28;20052;-72
2021/09/01 11:15:45;;;;;;;0.00;0.00;;;;;;;;;;10523556;28;20394;-73
2021/09/01 11:20:55;;;;;;;0.00;0.00;;;;;;;;;;10509585;28;20398;-72
2021/09/01 11:25:58;;;;;;;0.00;0.00;;;;;;;;;;10517202;28;20039;-72
2021/09/01 11:31:18;;;;;;;0.00;0.00;;;;;;;;;;10522561;28;20102;-73
2021/09/01 11:36:24;;;;;;;0.00;0.00;;;;;;;;;;10516832;28;20044;-72
2021/09/01 11:41:27;;;;;;;0.00;0.00;;;;;;;;;;10506228;28;20071;-73
2021/09/01 11:46:34;;;;;;;0.00;0.00;;;;;;;;;;10518070;28;20516;-73
2021/09/01 11:51:39;;;;;;;0.00;0.00;;;;;;;;;;10506345;28;20066;-72
2021/09/01 11:56:43;;;;;;;0.00;0.00;;;;;;;;;;10512614;28;20710;-72
2021/09/01 12:01:47;;;;;;;0.00;0.00;;;;;;;;;;10512685;28;20044;-72
2021/09/01 12:06:54;;;;;;;0.00;0.00;;;;;;;;;;10513051;28;20443;-72
2021/09/01 12:11:57;;;;;;;0.00;0.00;;;;;;;;;;10511451;28;20490;-73
2021/09/01 12:17:14;;;;;;;0.00;0.00;;;;;;;;;;10497446;28;20036;-72
2021/09/01 12:22:29;;;;;;;0.00;0.00;;;;;;;;;;10514558;28;20036;-72
2021/09/01 12:27:32;;;;;;;0.00;0.00;;;;;;;;;;10520987;28;20055;-73
2021/09/01 12:32:35;;;;;;;0.00;0.00;;;;;;;;;;10508613;28;20045;-73
2021/09/01 12:37:39;;;;;;;0.00;0.00;;;;;;;;;;10518244;28;20043;-73
2021/09/01 12:42:43;;;;;;;0.00;0.00;;;;;;;;;;10518391;28;20522;-72
2021/09/01 12:47:52;;;;;;;0.00;0.00;;;;;;;;;;10517001;28;20098;-72
2021/09/01 12:52:56;;;;;;;0.00;0.00;;;;;;;;;;10511431;28;20410;-73
2021/09/01 12:57:59;;;;;;;0.00;0.00;;;;;;;;;;10500337;28;20052;-73
2021/09/01 13:03:02;;;;;;;0.00;0.00;;;;;;;;;;10511392;28;20067;-73
2021/09/01 13:08:06;;;;;;;0.00;0.00;;;;;;;;;;10524431;28;20046;-73
2021/09/01 13:13:09;;;;;;;0.00;0.00;;;;;;;;;;10512886;28;20048;-72
2021/09/01 13:18:11;;;;;;;0.00;0.00;;;;;;;;;;10509815;28;20072;-72
2021/09/01 13:23:17;;;;;;;0.00;0.00;;;;;;;;;;10510513;28;20040;-72
2021/09/01 13:28:20;;;;;;;0.00;0.00;;;;;;;;;;10503724;28;20481;-73
2021/09/01 13:33:24;;;;;;;0.00;0.00;;;;;;;;;;10510214;28;20035;-72
2021/09/01 13:38:28;;;;;;;0.00;0.00;;;;;;;;;;10508089;28;20414;-72
2021/09/01 13:43:31;;;;;;;0.00;0.00;;;;;;;;;;10514952;28;20446;-72
2021/09/01 13:48:35;;;;;;;0.00;0.00;;;;;;;;;;10509620;28;20046;-73
2021/09/01 13:53:39;;;;;;;0.00;0.00;;;;;;;;;;10508653;28;20047;-72
2021/09/01 13:58:41;;;;;;;0.00;0.00;;;;;;;;;;10507685;28;20390;-72
2021/09/01 14:03:47;;;;;;;0.00;0.00;;;;;;;;;;10507663;28;20048;-73
2021/09/01 14:08:52;;;;;;;0.00;0.00;;;;;;;;;;10491675;28;20412;-73
2021/09/01 14:13:55;;;;;;;0.00;0.00;;;;;;;;;;10513374;28;20497;-73
2021/09/01 14:18:57;;;;;;;0.00;0.00;;;;;;;;;;10501496;28;20068;-72
2021/09/01 14:24:01;;;;;;;0.00;0.00;;;;;;;;;;10509455;28;20045;-72
2021/09/01 14:29:04;;;;;;;0.00;0.00;;;;;;;;;;10506492;28;20053;-73
2021/09/01 14:34:09;;;;;;;0.00;0.00;;;;;;;;;;10510656;28;20125;-72
2021/09/01 14:39:13;;;;;;;0.00;0.00;;;;;;;;;;10507057;28;20047;-73
2021/09/01 14:44:17;;;;;;;0.00;0.00;;;;;;;;;;10511796;28;20097;-73
2021/09/01 14:49:21;;;;;;;0.00;0.00;;;;;;;;;;10509146;28;20051;-72
2021/09/01 14:54:26;;;;;;;0.00;0.00;;;;;;;;;;10514091;28;20040;-73
2021/09/01 14:59:29;;;;;;;0.00;0.00;;;;;;;;;;10503156;28;20490;-73
2021/09/01 15:04:32;;;;;;;0.00;0.00;;;;;;;;;;10496521;28;20508;-73
2021/09/01 15:09:36;;;;;;;0.00;0.00;;;;;;;;;;10500679;28;20087;-72
2021/09/01 15:14:38;;;;;;;0.00;0.00;;;;;;;;;;10513669;28;20067;-72
2021/09/01 15:19:41;;;;;;;0.00;0.00;;;;;;;;;;10514681;28;20057;-72
2021/09/01 15:24:47;;;;;;;0.00;0.00;;;;;;;;;;10490253;28;20044;-72
2021/09/01 15:29:50;;;;;;;0.00;0.00;;;;;;;;;;10493785;28;20148;-74
2021/09/01 15:34:53;;;;;;;0.00;0.00;;;;;;;;;;10513843;28;20064;-72
2021/09/01 15:39:58;;;;;;;0.00;0.00;;;;;;;;;;10498983;28;20036;-72
2021/09/01 15:45:03;;;;;;;0.00;0.00;;;;;;;;;;10499522;28;20090;-72
2021/09/01 15:50:06;;;;;;;0.00;0.00;;;;;;;;;;10510642;28;20044;-73
2021/09/01 15:55:10;;;;;;;0.00;0.00;;;;;;;;;;10495756;28;20143;-74
2021/09/01 16:00:15;;;;;;;0.00;0.00;;;;;;;;;;10498775;28;20468;-72
2021/09/01 16:05:18;;;;;;;0.00;0.00;;;;;;;;;;10497345;28;20090;-72
2021/09/01 16:10:22;;;;;;;0.00;0.00;;;;;;;;;;10499647;28;20048;-71
2021/09/01 16:15:27;;;;;;;0.00;0.00;;;;;;;;;;10510733;28;20048;-71
2021/09/01 16:20:33;;;;;;;0.00;0.00;;;;;;;;;;10502568;28;20049;-71
2021/09/01 16:25:37;;;;;;;0.00;0.00;;;;;;;;;;10500122;28;20045;-72
2021/09/01 16:30:44;;;;;;;0.00;0.00;;;;;;;;;;10520675;28;20051;-72
2021/09/01 16:35:47;;;;;;;0.00;0.00;;;;;;;;;;10518124;28;20121;-76
2021/09/01 16:40:56;;;;;;;0.00;0.00;;;;;;;;;;10511386;28;20055;-75
2021/09/01 16:46:00;;;;;;;0.00;0.00;;;;;;;;;;10510308;28;21185;-75
2021/09/01 16:51:03;;;;;;;0.00;0.00;;;;;;;;;;10514187;28;20539;-76
2021/09/01 16:56:11;;;;;;;0.00;0.00;;;;;;;;;;10511975;28;20064;-75
2021/09/01 17:01:14;;;;;;;0.00;0.00;;;;;;;;;;10517438;28;20040;-75
2021/09/01 17:06:18;;;;;;;0.00;0.00;;;;;;;;;;10514483;28;20422;-77
2021/09/01 17:11:23;;;;;;;0.10;0.00;;;;;;;;;;10522734;28;20044;-75
2021/09/01 17:16:26;;;;;;;0.00;0.00;;;;;;;;;;10517559;28;20048;-77
2021/09/01 17:21:28;;;;;;;0.00;0.00;;;;;;;;;;10516049;28;20108;-78
2021/09/01 17:26:34;;;;;;;0.00;0.00;;;;;;;;;;10509536;28;20044;-78
2021/09/01 17:31:40;;;;;;;0.00;0.00;;;;;;;;;;10511382;28;20040;-77
2021/09/01 17:36:44;;;;;;;0.00;0.00;;;;;;;;;;10498422;28;20054;-77
2021/09/01 17:41:48;;;;;;;0.00;0.00;;;;;;;;;;10509062;28;20048;-77
2021/09/01 17:46:51;;;;;;;0.00;0.00;;;;;;;;;;10509436;28;20147;-77
2021/09/01 17:51:54;;;;;;;0.00;0.00;;;;;;;;;;10513960;28;20059;-78
2021/09/01 17:56:58;;;;;;;0.00;0.00;;;;;;;;;;10513830;28;20037;-78
2021/09/01 18:02:03;;;;;;;0.00;0.00;;;;;;;;;;10513921;28;20052;-78
2021/09/01 18:07:06;;;;;;;0.00;0.00;;;;;;;;;;10509482;28;20420;-76
2021/09/01 18:12:11;;;;;;;0.00;0.00;;;;;;;;;;10508036;28;20055;-76
2021/09/01 18:17:14;;;;;;;0.00;0.00;;;;;;;;;;10508100;28;20109;-75
2021/09/01 18:22:19;;;;;;;0.00;0.00;;;;;;;;;;10520109;28;20044;-75
2021/09/01 18:27:23;;;;;;;0.00;0.00;;;;;;;;;;10484333;28;20131;-75
2021/09/01 18:32:26;;;;;;;0.00;0.00;;;;;;;;;;10508978;28;20128;-76
2021/09/01 18:37:29;;;;;;;0.00;0.00;;;;;;;;;;10497048;28;20044;-75
2021/09/01 18:42:33;;;;;;;0.00;0.00;;;;;;;;;;10487326;28;20143;-75
2021/09/01 18:47:36;;;;;;;0.00;0.00;;;;;;;;;;10507131;28;20047;-75
2021/09/01 18:52:39;;;;;;;0.00;0.00;;;;;;;;;;10516655;28;20070;-76
2021/09/01 18:57:43;;;;;;;0.00;0.00;;;;;;;;;;10514876;28;20044;-76
2021/09/01 19:02:47;;;;;;;0.00;0.00;;;;;;;;;;10518884;28;20044;-76
2021/09/01 19:07:54;;;;;;;0.00;0.00;;;;;;;;;;10487414;28;20402;-76
2021/09/01 19:12:58;;;;;;;0.00;0.00;;;;;;;;;;10505825;28;20493;-76
2021/09/01 19:18:02;;;;;;;0.00;0.00;;;;;;;;;;10513207;28;20043;-75
2021/09/01 19:23:06;;;;;;;0.00;0.00;;;;;;;;;;10516206;28;20524;-75
2021/09/01 19:28:10;;;;;;;0.00;0.00;;;;;;;;;;10517631;28;20060;-75
2021/09/01 19:33:13;;;;;;;0.00;0.00;;;;;;;;;;10500010;28;20044;-75
2021/09/01 19:38:16;;;;;;;0.00;0.00;;;;;;;;;;10514700;28;20123;-76
2021/09/01 19:43:20;;;;;;;0.10;0.05;;;;;;;;;;10494714;28;20063;-76
2021/09/01 19:48:26;;;;;;;0.00;0.00;;;;;;;;;;10505022;28;20046;-75
2021/09/01 19:53:30;;;;;;;0.00;0.00;;;;;;;;;;10508617;28;20041;-76
2021/09/01 19:58:34;;;;;;;0.10;0.10;;;;;;;;;;10517980;28;20033;-75
2021/09/01 20:03:38;;;;;;;0.03;0.00;;;;;;;;;;10499069;28;20063;-76
2021/09/01 20:08:41;;;;;;;0.00;0.00;;;;;;;;;;10516629;28;20040;-76
2021/09/01 20:13:46;;;;;;;0.00;0.00;;;;;;;;;;10499072;28;20056;-75
2021/09/01 20:18:56;;;;;;;0.00;0.00;;;;;;;;;;10511966;28;20078;-75
2021/09/01 20:24:00;;;;;;;0.00;0.00;;;;;;;;;;10505588;28;20037;-75
2021/09/01 20:29:07;;;;;;;0.00;0.00;;;;;;;;;;10522334;28;20877;-75
2021/09/01 20:34:13;;;;;;;0.00;0.00;;;;;;;;;;10508414;28;20502;-75
2021/09/01 20:39:16;;;;;;;0.00;0.00;;;;;;;;;;10512691;28;20040;-84
2021/09/01 20:44:20;;;;;;;0.00;0.00;;;;;;;;;;10516720;28;20063;-74
2021/09/01 20:49:25;;;;;;;0.05;0.05;;;;;;;;;;10513164;28;20033;-73
2021/09/01 20:54:29;;;;;;;0.00;0.00;;;;;;;;;;10514200;28;20585;-74
2021/09/01 20:59:34;;;;;;;0.00;0.00;;;;;;;;;;10518716;28;20055;-75
2021/09/01 21:04:37;;;;;;;0.00;0.00;;;;;;;;;;10515321;28;20046;-76
2021/09/01 21:09:40;;;;;;;0.00;0.00;;;;;;;;;;10494100;28;20060;-76
2021/09/01 21:14:46;;;;;;;0.00;0.00;;;;;;;;;;10517584;28;20454;-75
2021/09/01 21:19:53;;;;;;;0.00;0.00;;;;;;;;;;10517631;28;20630;-76
2021/09/01 21:24:57;;;;;;;0.00;0.00;;;;;;;;;;10483156;28;20089;-75
2021/09/01 21:30:05;;;;;;;0.00;0.00;;;;;;;;;;10507694;28;20032;-75
2021/09/01 21:35:08;;;;;;;0.00;0.00;;;;;;;;;;10495977;28;20044;-75
2021/09/01 21:40:12;;;;;;;0.00;0.00;;;;;;;;;;10524572;28;20086;-75
2021/09/01 21:45:19;;;;;;;0.00;0.00;;;;;;;;;;10511755;28;20071;-75
2021/09/01 21:50:23;;;;;;;0.00;0.00;;;;;;;;;;10512192;28;20072;-75
2021/09/01 21:55:27;;;;;;;0.00;0.00;;;;;;;;;;10512854;28;20127;-76
2021/09/01 22:00:31;;;;;;;0.00;0.00;;;;;;;;;;10487253;28;20067;-76
2021/09/01 22:05:34;;;;;;;0.00;0.00;;;;;;;;;;10516094;28;20505;-76
2021/09/01 22:10:37;;;;;;;0.00;0.00;;;;;;;;;;10505742;28;20127;-76
2021/09/01 22:15:43;;;;;;;0.03;0.03;;;;;;;;;;10509501;28;20043;-76
2021/09/01 22:20:47;;;;;;;0.00;0.00;;;;;;;;;;10514193;28;20058;-75
2021/09/01 22:25:50;;;;;;;0.00;0.00;;;;;;;;;;10511862;28;20040;-75
2021/09/01 22:30:55;;;;;;;0.10;0.10;;;;;;;;;;10510522;28;20513;-76
2021/09/01 22:35:57;;;;;;;0.00;0.00;;;;;;;;;;10507849;28;20083;-76
2021/09/01 22:41:01;;;;;;;0.00;0.00;;;;;;;;;;10511087;28;20054;-75
2021/09/01 22:46:05;;;;;;;0.00;0.00;;;;;;;;;;10506655;28;20052;-75
2021/09/01 22:51:08;;;;;;;0.00;0.00;;;;;;;;;;10509150;28;20048;-74
2021/09/01 22:56:12;;;;;;;0.00;0.00;;;;;;;;;;10516216;28;20048;-84
2021/09/01 23:01:18;;;;;;;0.00;0.00;;;;;;;;;;10495420;28;20508;-85
2021/09/01 23:06:21;;;;;;;0.00;0.00;;;;;;;;;;10500486;28;20049;-85
2021/09/01 23:11:24;;;;;;;0.00;0.00;;;;;;;;;;10496224;28;20048;-76
2021/09/01 23:16:28;;;;;;;0.00;0.00;;;;;;;;;;10524229;28;20058;-75
2021/09/01 23:21:32;;;;;;;0.00;0.00;;;;;;;;;;10499240;28;20044;-75
2021/09/01 23:26:35;;;;;;;0.00;0.00;;;;;;;;;;10499771;28;20416;-74
2021/09/01 23:31:40;;;;;;;0.03;0.03;;;;;;;;;;10518757;28;20040;-75
2021/09/01 23:36:43;;;;;;;0.00;0.00;;;;;;;;;;10497588;28;20068;-75
2021/09/01 23:41:45;;;;;;;0.10;0.00;;;;;;;;;;10496877;28;20573;-74
2021/09/01 23:46:51;;;;;;;0.10;0.05;;;;;;;;;;10501000;28;20047;-75
2021/09/01 23:51:53;;;;;;;0.00;0.00;;;;;;;;;;10519571;28;20048;-76
2021/09/01 23:56:56;;;;;;;0.00;0.00;;;;;;;;;;10523609;28;20119;-76
